Terminal Aerodrome Forecast
Issued by NWS

Home | Current Version | Previous Version | Text Only | Print | Product List | Glossary On
Versions: 1 2 3 4 5 6 7 8 9 10 11 12 13 14 15 16 17 18
495
FTUS41 KGYX 011720
TAFRKD
TAF
KRKD 011720Z 0118/0218 21009G16KT 1/4SM FG OVC002
      TEMPO 0118/0122 3SM -SHRA BR OVC010
     FM020000 21011G17KT 1/2SM -DZ FG VV002 WS020/25045KT
     FM020900 21013G23KT 4SM -SHRA BR BKN020
     FM021500 27018G36KT P6SM SCT035
      AMD LTD TO CLD VIS AND WIND=

USA.gov is the U.S. government's official web portal to all federal, state and local government web resources and services.